createdAt,value
2019-05-21T19:35:54.436Z,99309.25
2019-05-21T19:38:14.839Z,99307.91
2019-05-21T19:40:35.260Z,99314.88
2019-05-21T19:42:55.917Z,99319.42
2019-05-21T19:45:16.091Z,99315.00
2019-05-21T19:47:37.273Z,99314.09
2019-05-21T19:49:57.458Z,99318.33
2019-05-21T19:52:30.831Z,99322.83
2019-05-21T19:54:52.572Z,99320.80
2019-05-21T19:57:12.960Z,99327.20
2019-05-21T19:59:34.080Z,99325.17
2019-05-21T20:01:55.336Z,99327.88
2019-05-21T20:04:17.036Z,99331.40
2019-05-21T20:06:37.796Z,99335.26
2019-05-21T20:08:59.288Z,99337.42
2019-05-21T20:11:20.098Z,99342.09
2019-05-21T20:13:41.874Z,99337.80
2019-05-21T20:16:02.413Z,99343.52
2019-05-21T20:18:23.709Z,99351.70
2019-05-21T20:20:44.248Z,99354.71
2019-05-21T20:23:08.273Z,99362.63
2019-05-21T20:25:27.188Z,99353.97
2019-05-21T20:27:48.121Z,99353.22
2019-05-21T20:30:12.626Z,99360.80
2019-05-21T20:32:31.009Z,99355.92
2019-05-21T20:34:52.865Z,99359.38
2019-05-21T20:37:13.929Z,99360.66
2019-05-21T20:39:35.117Z,99363.61
2019-05-21T20:42:00.818Z,99358.40
2019-05-21T20:44:21.312Z,99362.16
2019-05-21T20:46:42.393Z,99357.72
2019-05-21T20:49:03.304Z,99355.76
2019-05-21T20:51:24.515Z,99351.13
2019-05-21T20:53:45.128Z,99360.80
2019-05-21T20:56:06.768Z,99351.02
2019-05-21T20:58:28.027Z,99355.31
2019-05-21T21:00:48.547Z,99353.96
2019-05-21T21:03:09.374Z,99353.66
2019-05-21T21:05:30.942Z,99353.35
2019-05-21T21:07:51.643Z,99351.70
2019-05-21T21:10:12.105Z,99347.06
2019-05-21T21:12:32.830Z,99352.67
2019-05-21T21:14:53.336Z,99354.02
2019-05-21T21:17:14.802Z,99353.21
2019-05-21T21:19:35.913Z,99349.89
2019-05-21T21:21:56.482Z,99352.60
2019-05-21T21:24:16.850Z,99351.99
2019-05-21T21:26:37.955Z,99356.05
2019-05-21T21:28:59.234Z,99350.03
2019-05-21T21:31:20.003Z,99354.86
2019-05-21T21:33:40.786Z,99354.55
2019-05-21T21:36:02.241Z,99353.71
2019-05-21T21:38:23.100Z,99357.46
2019-05-21T21:40:47.213Z,99367.16
2019-05-21T21:43:08.241Z,99365.20
2019-05-21T21:45:29.521Z,99369.56
2019-05-21T21:47:49.835Z,99365.73
2019-05-21T21:50:11.133Z,99364.89
2019-05-21T21:52:31.563Z,99367.30
2019-05-21T21:54:52.006Z,99370.84
2019-05-21T21:57:12.471Z,99375.13
2019-05-21T21:59:34.040Z,99376.99
2019-05-21T22:01:54.433Z,99374.52
2019-05-21T22:04:15.699Z,99373.67
2019-05-21T22:06:36.238Z,99372.86
2019-05-21T22:08:57.593Z,99373.91
2019-05-21T22:11:19.827Z,99375.56
2019-05-21T22:13:40.884Z,99377.16
2019-05-21T22:16:03.397Z,99380.59
2019-05-21T22:18:24.729Z,99386.00
2019-05-21T22:20:45.841Z,99385.70
2019-05-21T22:23:06.591Z,99387.56
2019-05-21T22:25:27.544Z,99387.56
2019-05-21T22:27:48.281Z,99383.23
2019-05-21T22:30:09.104Z,99386.13
2019-05-21T22:32:30.051Z,99388.84
2019-05-21T22:34:50.965Z,99382.31
2019-05-21T22:37:12.258Z,99385.02
2019-05-21T22:39:34.143Z,99381.46
2019-05-21T22:41:55.274Z,99383.35
2019-05-21T22:44:15.775Z,99384.41
2019-05-21T22:46:36.600Z,99379.53
2019-05-21T22:48:57.363Z,99380.03
2019-05-21T22:51:17.954Z,99385.45
2019-05-21T22:53:39.245Z,99388.15
2019-05-21T22:56:00.732Z,99382.44
2019-05-21T22:58:21.652Z,99384.83
2019-05-21T23:00:42.335Z,99377.77
2019-05-21T23:03:03.940Z,99379.12
2019-05-21T23:05:25.046Z,99376.95
2019-05-21T23:07:45.829Z,99383.41
2019-05-21T23:10:06.781Z,99384.45
2019-05-21T23:12:27.775Z,99379.04
2019-05-21T23:14:49.053Z,99378.23
2019-05-21T23:17:10.323Z,99377.08
2019-05-21T23:19:30.906Z,99374.91
2019-05-21T23:21:51.777Z,99378.16
2019-05-21T23:24:13.093Z,99375.95
2019-05-21T23:26:33.741Z,99374.30
2019-05-21T23:28:55.627Z,99378.35
2019-05-21T23:31:16.550Z,99384.80
2019-05-21T23:33:37.282Z,99379.94
2019-05-21T23:35:58.685Z,99386.70
2019-05-21T23:38:19.743Z,99382.87
2019-05-21T23:40:40.280Z,99382.87
2019-05-21T23:43:01.239Z,99381.52
2019-05-21T23:45:21.733Z,99383.61
2019-05-21T23:47:42.366Z,99384.96
2019-05-21T23:50:03.597Z,99380.06
2019-05-21T23:52:24.471Z,99378.37
2019-05-21T23:54:45.253Z,99379.72
2019-05-21T23:57:06.205Z,99383.77
2019-05-21T23:59:26.975Z,99387.02
